Time;durP1;ratioP1;P1;durP2;ratioP2;P2;SDS_P1;SDS_P2;PMS_P1;PMS_P2;Temp;Humidity;BMP_temperature;BMP_pressure;BME280_temperature;BME280_humidity;BME280_pressure;Samples;Min_cycle;Max_cycle;Signal;HPM_P1;HPM_P2
2022/05/28 00:01:50;;;;;;;8.90;3.50;;;;;;;7.90;77.15;97813.91;5059970;27;20050;-69
2022/05/28 00:04:15;;;;;;;5.68;3.42;;;;;;;8.00;77.03;97795.34;5095532;27;20050;-69
2022/05/28 00:06:40;;;;;;;4.72;3.55;;;;;;;7.93;76.84;97794.22;5095561;27;20507;-70
2022/05/28 00:09:05;;;;;;;7.70;3.80;;;;;;;7.86;77.00;97780.69;5050800;28;20490;-76
2022/05/28 00:11:33;;;;;;;8.35;3.90;;;;;;;7.93;76.91;97781.78;5076920;28;20039;-69
2022/05/28 00:13:58;;;;;;;6.53;3.72;;;;;;;7.94;76.63;97777.31;5068275;28;20092;-74
2022/05/28 00:16:24;;;;;;;5.30;3.78;;;;;;;7.88;76.82;97770.78;5061711;28;20054;-75
2022/05/28 00:18:50;;;;;;;7.72;3.80;;;;;;;7.79;77.17;97762.81;5079924;28;20493;-73
2022/05/28 00:21:16;;;;;;;10.60;3.97;;;;;;;7.75;78.05;97764.03;5079294;28;20070;-73
2022/05/28 00:23:42;;;;;;;6.45;3.85;;;;;;;7.75;78.78;97751.63;5062154;28;20049;-78
2022/05/28 00:26:07;;;;;;;9.38;4.10;;;;;;;7.79;78.62;97755.66;5089553;28;20059;-76
2022/05/28 00:28:33;;;;;;;6.97;3.40;;;;;;;7.81;78.25;97745.75;5071249;28;20050;-76
2022/05/28 00:30:59;;;;;;;8.55;4.15;;;;;;;7.88;78.29;97746.06;5088877;27;20043;-76
2022/05/28 00:33:24;;;;;;;5.20;3.47;;;;;;;7.95;78.37;97744.50;5076347;28;20047;-76
2022/05/28 00:35:50;;;;;;;5.22;3.53;;;;;;;8.02;77.54;97749.09;5091975;27;20043;-74
2022/05/28 00:38:15;;;;;;;9.10;4.10;;;;;;;8.05;77.49;97747.16;5080381;28;20047;-73
2022/05/28 00:40:46;;;;;;;9.07;3.60;;;;;;;8.10;77.96;97740.47;5085896;27;20516;-75
2022/05/28 00:43:10;;;;;;;6.60;3.95;;;;;;;8.08;77.66;97731.81;5073923;27;20043;-73
2022/05/28 00:45:35;;;;;;;8.80;3.55;;;;;;;8.13;77.79;97734.84;5094860;27;20181;-72
2022/05/28 00:48:03;;;;;;;10.40;3.85;;;;;;;8.21;77.66;97736.81;5089331;27;20108;-73
2022/05/28 00:50:29;;;;;;;3.72;3.33;;;;;;;8.24;77.17;97733.91;5072405;28;20031;-75
2022/05/28 00:52:54;;;;;;;5.32;3.45;;;;;;;8.33;76.17;97725.94;5069301;27;20019;-75
2022/05/28 00:55:19;;;;;;;4.75;3.00;;;;;;;8.37;76.47;97726.47;5102725;27;20035;-75
2022/05/28 00:57:44;;;;;;;5.82;3.88;;;;;;;8.39;77.15;97721.88;5064564;27;20128;-74
2022/05/28 01:00:17;;;;;;;5.15;3.30;;;;;;;8.44;77.20;97726.75;5073771;27;20142;-77
2022/05/28 01:02:50;;;;;;;5.55;3.50;;;;;;;8.47;77.20;97721.13;5074110;27;20482;-71
2022/05/28 01:05:20;;;;;;;6.37;4.03;;;;;;;8.48;77.03;97723.66;5098054;27;20687;-71
2022/05/28 01:08:04;;;;;;;5.22;3.65;;;;;;;8.53;76.96;97731.22;5077541;27;20047;-69
2022/05/28 01:10:57;;;;;;;5.00;3.47;;;;;;;8.55;77.14;97731.91;5097279;27;20039;-66
2022/05/28 01:13:30;;;;;;;6.15;3.70;;;;;;;8.52;77.21;97725.06;5046073;27;20047;-69
2022/05/28 01:16:01;;;;;;;4.88;3.72;;;;;;;8.55;76.25;97724.78;5079443;27;20050;-67
2022/05/28 01:18:52;;;;;;;10.55;4.22;;;;;;;8.63;76.40;97726.69;5097923;27;20039;-67
2022/05/28 01:21:36;;;;;;;6.80;3.78;;;;;;;8.68;75.79;97725.31;5079271;27;20031;-68
2022/05/28 01:24:13;;;;;;;6.22;3.65;;;;;;;8.69;75.41;97724.28;5098438;27;20413;-72
2022/05/28 01:26:46;;;;;;;5.85;3.38;;;;;;;8.72;75.83;97715.19;5062481;27;20059;-70
2022/05/28 01:29:16;;;;;;;18.67;3.55;;;;;;;8.68;75.62;97713.84;5079601;27;20054;-70
2022/05/28 01:31:42;;;;;;;4.35;3.50;;;;;;;8.69;75.42;97707.56;5079553;27;20443;-70
2022/05/28 01:34:08;;;;;;;6.15;3.10;;;;;;;8.70;75.35;97712.69;5042397;27;20047;-70
2022/05/28 01:36:35;;;;;;;6.93;3.63;;;;;;;8.71;75.59;97702.91;5077634;27;20042;-71
2022/05/28 01:39:00;;;;;;;10.93;3.53;;;;;;;8.72;75.58;97700.09;5097642;27;20449;-71
2022/05/28 01:41:29;;;;;;;11.10;3.63;;;;;;;8.73;75.83;97700.94;5097619;27;20038;-72
2022/05/28 01:43:55;;;;;;;7.85;3.60;;;;;;;8.74;76.04;97699.97;5097863;27;20039;-71
2022/05/28 01:46:23;;;;;;;5.47;3.20;;;;;;;8.75;75.88;97706.97;5079325;27;20062;-71
2022/05/28 01:48:52;;;;;;;5.70;3.53;;;;;;;8.76;75.64;97705.13;5080051;27;20485;-72
2022/05/28 01:51:19;;;;;;;7.70;3.30;;;;;;;8.73;75.38;97701.78;5078990;27;20039;-70
2022/05/28 01:56:29;;;;;;;6.97;3.63;;;;;;;8.71;75.03;97697.59;5075931;27;20138;-66
2022/05/28 01:58:54;;;;;;;6.85;3.50;;;;;;;8.67;75.22;97696.22;5081159;27;20035;-67
2022/05/28 02:01:19;;;;;;;5.90;3.28;;;;;;;8.61;75.01;97697.63;5064757;27;20027;-72
2022/05/28 02:03:48;;;;;;;9.55;4.45;;;;;;;8.62;75.97;97685.19;5067115;27;20046;-71
2022/05/28 02:06:13;;;;;;;6.45;4.57;;;;;;;8.62;75.90;97690.50;5096471;27;20046;-72
2022/05/28 02:08:40;;;;;;;7.88;3.92;;;;;;;8.67;76.42;97681.13;5097907;27;20039;-71
2022/05/28 02:11:14;;;;;;;8.13;4.43;;;;;;;8.78;76.54;97677.44;5096338;27;20039;-72
2022/05/28 02:14:09;;;;;;;9.75;4.72;;;;;;;8.94;76.31;97677.63;5074937;27;20126;-72
2022/05/28 02:16:46;;;;;;;6.95;3.95;;;;;;;9.13;76.38;97676.72;5094638;27;20049;-71
2022/05/28 02:19:35;;;;;;;7.53;3.97;;;;;;;9.31;75.34;97674.09;5060139;27;20039;-66
2022/05/28 02:22:08;;;;;;;6.85;4.30;;;;;;;9.52;74.41;97671.97;5082566;27;20074;-66
2022/05/28 02:24:43;;;;;;;10.80;4.10;;;;;;;9.71;73.69;97671.81;5051867;27;20401;-66
2022/05/28 02:27:13;;;;;;;11.25;4.20;;;;;;;9.78;73.33;97669.41;5079667;27;20518;-67
2022/05/28 02:29:38;;;;;;;5.57;3.83;;;;;;;9.88;72.36;97669.31;5072293;28;20039;-65
2022/05/28 02:32:19;;;;;;;6.57;4.10;;;;;;;9.83;72.04;97678.59;5040340;28;20180;-69
2022/05/28 02:34:45;;;;;;;7.47;3.60;;;;;;;9.78;71.82;97678.22;5038772;28;20493;-72
2022/05/28 02:37:10;;;;;;;12.15;5.07;;;;;;;9.53;72.39;97672.81;5039197;28;20090;-76
2022/05/28 02:39:34;;;;;;;9.60;4.28;;;;;;;9.58;72.67;97665.22;5022173;28;20083;-73
2022/05/28 02:41:59;;;;;;;9.50;5.47;;;;;;;9.54;72.74;97669.16;5043673;28;20095;-73
2022/05/28 02:44:25;;;;;;;9.50;4.75;;;;;;;9.54;72.69;97677.97;5066845;28;20048;-73
2022/05/28 02:46:49;;;;;;;16.95;5.35;;;;;;;9.58;72.73;97663.41;5091741;28;20097;-73
2022/05/28 02:49:14;;;;;;;11.18;5.05;;;;;;;9.64;71.97;97670.75;5093281;28;20047;-76
2022/05/28 02:51:39;;;;;;;7.97;4.50;;;;;;;9.61;72.31;97675.53;5095178;28;20067;-73
2022/05/28 02:54:04;;;;;;;8.35;4.03;;;;;;;9.55;72.79;97677.00;5031187;28;20402;-71
2022/05/28 02:56:29;;;;;;;8.50;4.75;;;;;;;9.61;72.78;97665.75;5062290;28;20118;-73
2022/05/28 02:58:53;;;;;;;8.88;4.85;;;;;;;9.73;72.33;97669.84;5078152;28;20053;-73
2022/05/28 03:01:28;;;;;;;5.82;3.75;;;;;;;9.77;72.21;97660.59;5079133;28;20046;-74
2022/05/28 03:03:54;;;;;;;9.95;5.28;;;;;;;9.58;72.35;97668.72;5041222;28;20039;-71
2022/05/28 03:06:19;;;;;;;10.07;5.03;;;;;;;9.53;73.14;97657.69;5059363;28;20493;-77
2022/05/28 03:08:44;;;;;;;8.00;5.28;;;;;;;9.56;73.06;97656.56;5026818;28;20069;-80
2022/05/28 03:11:09;;;;;;;6.68;4.28;;;;;;;9.59;73.10;97649.13;5043641;28;20100;-78
2022/05/28 03:13:34;;;;;;;26.35;6.85;;;;;;;9.66;72.97;97650.16;5058938;28;20039;-72
2022/05/28 03:15:59;;;;;;;7.85;4.70;;;;;;;9.62;73.04;97645.28;5076185;28;20039;-70
2022/05/28 03:18:24;;;;;;;13.63;6.20;;;;;;;9.58;72.45;97636.81;5040906;28;20047;-68
2022/05/28 03:20:49;;;;;;;8.25;5.18;;;;;;;9.52;73.64;97645.38;5057700;28;20039;-69
2022/05/28 03:23:13;;;;;;;10.52;5.72;;;;;;;9.48;73.94;97644.84;5057766;28;20410;-66
2022/05/28 03:25:38;;;;;;;14.30;4.85;;;;;;;9.51;74.09;97634.88;5057368;28;20548;-68
2022/05/28 03:28:03;;;;;;;13.82;5.07;;;;;;;9.64;73.93;97649.47;5057599;28;20047;-69
2022/05/28 03:30:28;;;;;;;12.82;5.65;;;;;;;9.85;74.00;97638.50;5040040;28;20074;-69
2022/05/28 03:32:52;;;;;;;10.10;5.00;;;;;;;10.26;72.96;97638.88;5056179;28;20039;-70
2022/05/28 03:35:17;;;;;;;10.35;5.38;;;;;;;10.70;71.87;97636.94;5073952;28;20043;-69
2022/05/28 03:37:42;;;;;;;8.43;5.28;;;;;;;11.10;70.21;97634.44;5074405;28;20123;-67
2022/05/28 03:40:07;;;;;;;10.10;4.60;;;;;;;11.42;69.32;97635.50;5075044;28;20055;-69
2022/05/28 03:42:32;;;;;;;9.23;5.15;;;;;;;11.62;67.84;97623.56;5072884;28;20781;-70
2022/05/28 03:44:57;;;;;;;10.52;4.78;;;;;;;11.69;67.22;97624.56;5039302;28;20456;-69
2022/05/28 03:47:22;;;;;;;11.65;5.15;;;;;;;11.80;66.78;97618.09;5056118;28;20482;-70
2022/05/28 03:49:47;;;;;;;9.77;4.72;;;;;;;11.90;66.71;97613.41;5057079;28;20123;-67
2022/05/28 03:52:14;;;;;;;12.10;4.70;;;;;;;11.96;66.81;97621.56;5056799;28;20047;-68
2022/05/28 03:54:44;;;;;;;7.82;4.20;;;;;;;11.89;66.24;97614.41;5076345;28;20118;-68
2022/05/28 03:57:27;;;;;;;15.27;4.50;;;;;;;11.93;66.04;97619.25;5040508;28;20044;-69
2022/05/28 03:59:53;;;;;;;10.27;5.03;;;;;;;11.89;66.22;97615.25;5059893;28;20123;-70
2022/05/28 04:02:18;;;;;;;9.07;4.05;;;;;;;11.89;66.21;97620.59;5026357;28;20142;-69
2022/05/28 04:04:42;;;;;;;7.78;4.32;;;;;;;11.86;66.59;97620.91;5040640;28;20193;-69
2022/05/28 04:07:10;;;;;;;8.73;3.88;;;;;;;11.83;66.46;97617.75;5057306;28;20050;-67
2022/05/28 04:09:35;;;;;;;10.18;4.63;;;;;;;11.79;66.68;97616.41;5077363;28;20115;-69
2022/05/28 04:11:59;;;;;;;9.55;4.32;;;;;;;11.82;66.92;97619.59;5078873;28;20085;-71
2022/05/28 04:14:24;;;;;;;7.40;4.15;;;;;;;11.86;66.62;97615.56;5026847;28;20071;-69
2022/05/28 04:16:49;;;;;;;6.80;4.50;;;;;;;11.87;66.42;97616.41;5057494;28;20043;-70
2022/05/28 04:19:14;;;;;;;10.77;4.57;;;;;;;11.88;66.67;97618.91;5056714;28;20387;-71
2022/05/28 04:21:39;;;;;;;7.30;4.15;;;;;;;11.86;66.18;97618.25;5056736;28;20047;-69
2022/05/28 04:24:05;;;;;;;10.30;3.83;;;;;;;11.82;66.15;97614.25;5075287;28;20444;-68
2022/05/28 04:26:30;;;;;;;8.45;3.95;;;;;;;11.93;66.64;97613.09;5084994;28;20055;-69
2022/05/28 04:28:55;;;;;;;7.13;4.38;;;;;;;12.09;66.42;97612.22;5077053;28;20055;-69
2022/05/28 04:31:20;;;;;;;6.20;4.13;;;;;;;12.35;66.36;97612.84;5095253;28;20047;-70
2022/05/28 04:33:44;;;;;;;6.20;4.03;;;;;;;12.68;65.42;97619.78;5060175;28;20502;-69
2022/05/28 04:36:09;;;;;;;10.93;4.65;;;;;;;12.94;64.37;97610.66;5059702;28;20550;-70
2022/05/28 04:38:34;;;;;;;8.05;4.13;;;;;;;13.27;64.00;97614.88;5095536;28;20413;-72
2022/05/28 04:40:58;;;;;;;8.55;4.07;;;;;;;13.62;62.39;97616.16;5060326;28;20082;-72
2022/05/28 04:43:23;;;;;;;11.20;4.60;;;;;;;13.74;61.70;97614.75;5095601;28;20047;-71
2022/05/28 04:45:48;;;;;;;13.07;4.55;;;;;;;13.69;61.60;97616.28;5095257;27;20031;-72
2022/05/28 04:48:13;;;;;;;9.52;3.97;;;;;;;13.59;62.27;97621.03;5077468;28;20054;-71
2022/05/28 04:50:38;;;;;;;9.93;3.88;;;;;;;13.53;61.78;97621.75;5077148;28;20046;-71
2022/05/28 04:53:03;;;;;;;8.65;4.70;;;;;;;13.30;62.39;97619.88;5095489;28;20035;-71
2022/05/28 04:55:28;;;;;;;6.38;4.13;;;;;;;13.15;62.64;97613.59;5077202;28;20100;-72
2022/05/28 04:57:53;;;;;;;9.48;4.10;;;;;;;13.09;63.21;97614.28;5059272;28;20044;-73
2022/05/28 05:00:21;;;;;;;6.00;3.80;;;;;;;13.02;63.25;97619.47;5053525;28;20039;-73
2022/05/28 05:02:46;;;;;;;7.82;4.30;;;;;;;12.90;63.38;97614.69;5015425;28;20106;-73
2022/05/28 05:05:11;;;;;;;5.35;3.92;;;;;;;12.80;64.05;97624.75;5032301;28;20102;-72
2022/05/28 05:07:36;;;;;;;7.90;4.07;;;;;;;12.61;64.88;97616.16;5032099;28;20153;-73
2022/05/28 05:10:02;;;;;;;6.13;3.58;;;;;;;12.57;64.80;97616.66;5015713;28;20532;-73
2022/05/28 05:12:27;;;;;;;11.00;3.92;;;;;;;12.38;64.92;97614.38;5032472;28;20145;-71
2022/05/28 05:14:52;;;;;;;6.68;4.07;;;;;;;12.28;65.88;97614.56;5015639;28;20116;-71
2022/05/28 05:17:17;;;;;;;6.38;4.50;;;;;;;12.28;66.10;97618.06;5032362;28;20459;-71
2022/05/28 05:19:41;;;;;;;8.70;4.00;;;;;;;12.25;66.37;97628.25;5032371;28;20388;-71
2022/05/28 05:22:06;;;;;;;6.60;3.55;;;;;;;12.27;65.95;97618.22;5018063;28;20607;-72
2022/05/28 05:24:33;;;;;;;7.60;4.13;;;;;;;12.34;66.14;97625.38;5019764;28;20052;-73
2022/05/28 05:26:58;;;;;;;12.25;4.63;;;;;;;12.44;66.34;97619.00;5057029;28;20063;-72
2022/05/28 05:29:23;;;;;;;5.85;3.97;;;;;;;12.48;65.95;97623.03;5048786;28;20139;-74
2022/05/28 05:31:49;;;;;;;13.88;5.43;;;;;;;12.44;65.93;97622.53;5031585;28;20035;-71
2022/05/28 05:34:14;;;;;;;4.93;3.97;;;;;;;12.34;66.21;97625.38;5078561;28;20203;-71
2022/05/28 05:36:38;;;;;;;6.40;3.67;;;;;;;12.22;66.05;97617.88;5079279;28;20102;-72
2022/05/28 05:39:03;;;;;;;6.82;3.80;;;;;;;12.12;66.94;97626.09;5079181;28;20115;-71
2022/05/28 05:41:28;;;;;;;5.85;3.83;;;;;;;12.09;66.57;97614.88;5077318;28;20379;-72
2022/05/28 05:43:53;;;;;;;7.30;4.55;;;;;;;12.14;67.12;97618.75;5059646;28;20498;-75
2022/05/28 05:46:18;;;;;;;8.43;3.90;;;;;;;12.10;66.85;97616.56;5076788;28;20178;-71
2022/05/28 05:48:43;;;;;;;6.22;4.25;;;;;;;12.08;66.56;97618.56;5076470;28;20134;-71
2022/05/28 05:51:10;;;;;;;8.05;4.05;;;;;;;12.08;67.32;97626.56;5076737;28;20178;-71
2022/05/28 05:53:35;;;;;;;4.20;3.58;;;;;;;12.05;67.18;97614.41;5076440;28;20516;-72
2022/05/28 05:56:00;;;;;;;8.55;4.00;;;;;;;11.97;67.03;97623.25;5076496;28;20122;-73
2022/05/28 05:58:25;;;;;;;7.28;4.05;;;;;;;11.94;67.37;97618.25;5077714;28;20178;-69
2022/05/28 06:00:50;;;;;;;7.80;3.90;;;;;;;11.85;67.60;97631.78;5077253;28;20046;-70
2022/05/28 06:03:18;;;;;;;6.18;3.90;;;;;;;11.78;67.75;97628.09;5059365;28;20043;-69
2022/05/28 06:05:44;;;;;;;7.30;3.88;;;;;;;11.69;68.31;97632.56;5077230;28;20036;-69
2022/05/28 06:08:09;;;;;;;5.18;3.42;;;;;;;11.62;68.03;97628.91;5077234;28;20057;-69
2022/05/28 06:10:33;;;;;;;8.00;3.88;;;;;;;11.52;68.79;97634.38;5076087;28;20047;-69
2022/05/28 06:12:58;;;;;;;5.85;3.78;;;;;;;11.45;69.50;97627.19;5076888;28;20055;-70
2022/05/28 06:15:23;;;;;;;8.38;4.38;;;;;;;11.45;69.77;97635.19;5076807;28;20044;-70
2022/05/28 06:17:48;;;;;;;9.35;4.15;;;;;;;11.48;70.13;97640.22;5075856;28;20047;-69
2022/05/28 06:20:13;;;;;;;6.30;3.97;;;;;;;11.48;69.58;97648.22;5077178;28;20035;-70
2022/05/28 06:22:38;;;;;;;5.50;3.72;;;;;;;11.54;69.92;97636.88;5077035;28;20052;-69
2022/05/28 06:25:03;;;;;;;11.60;4.22;;;;;;;11.61;70.29;97643.25;5076762;28;20475;-69
2022/05/28 06:27:28;;;;;;;12.52;5.97;;;;;;;11.72;70.26;97640.25;5075321;28;20051;-69
2022/05/28 06:29:53;;;;;;;8.35;4.10;;;;;;;11.86;69.95;97639.59;5075660;28;20513;-69
2022/05/28 06:32:18;;;;;;;5.80;4.45;;;;;;;12.04;69.95;97634.09;5075519;28;20406;-69
2022/05/28 06:34:43;;;;;;;9.18;4.15;;;;;;;12.20;69.31;97643.94;5075939;28;20093;-69
2022/05/28 06:37:09;;;;;;;9.93;5.10;;;;;;;12.35;68.86;97647.59;5076657;28;20126;-69
2022/05/28 06:39:35;;;;;;;9.60;4.32;;;;;;;12.45;68.37;97648.25;5058463;28;20071;-69
2022/05/28 06:42:00;;;;;;;5.82;4.03;;;;;;;12.54;67.22;97647.22;5076413;28;20515;-69
2022/05/28 06:44:26;;;;;;;6.15;3.88;;;;;;;12.61;67.33;97652.72;5076939;28;20190;-72
2022/05/28 06:46:51;;;;;;;6.35;4.00;;;;;;;12.66;67.53;97645.00;5068778;28;20032;-72
2022/05/28 06:49:15;;;;;;;7.70;4.43;;;;;;;12.66;66.76;97640.50;5087218;28;20054;-73
2022/05/28 06:51:40;;;;;;;5.97;4.47;;;;;;;12.68;66.80;97649.19;5079560;28;20067;-72
2022/05/28 06:54:05;;;;;;;8.82;3.45;;;;;;;12.68;66.27;97643.00;5085357;28;20075;-71
2022/05/28 06:56:30;;;;;;;8.65;3.80;;;;;;;12.70;66.54;97644.50;5076956;28;20493;-74
2022/05/28 06:58:55;;;;;;;10.38;3.67;;;;;;;12.80;66.25;97651.50;5076368;28;20032;-71
2022/05/28 07:01:20;;;;;;;9.38;4.28;;;;;;;12.75;64.60;97645.84;5058730;28;20054;-72
2022/05/28 07:03:45;;;;;;;5.90;3.80;;;;;;;12.71;65.61;97654.19;5076918;28;20115;-71
2022/05/28 07:06:11;;;;;;;5.05;3.22;;;;;;;12.69;65.99;97652.69;5075343;28;20044;-72
2022/05/28 07:08:36;;;;;;;4.75;3.20;;;;;;;12.67;65.89;97657.38;5061269;28;20048;-72
2022/05/28 07:11:02;;;;;;;7.93;3.70;;;;;;;12.64;65.05;97661.22;5062031;28;20085;-73
2022/05/28 07:13:29;;;;;;;11.70;3.72;;;;;;;12.60;65.27;97662.59;5078663;28;20247;-73
2022/05/28 07:15:54;;;;;;;5.05;3.70;;;;;;;12.54;65.35;97667.75;5077015;28;20039;-73
2022/05/28 07:18:19;;;;;;;9.80;4.28;;;;;;;12.49;65.82;97660.28;5058549;28;20071;-74
2022/05/28 07:20:45;;;;;;;8.90;3.97;;;;;;;12.51;65.43;97668.13;5075774;28;20039;-73
2022/05/28 07:23:15;;;;;;;6.50;3.47;;;;;;;12.57;65.99;97670.94;5041854;28;20567;-71
2022/05/28 07:25:42;;;;;;;6.20;3.33;;;;;;;12.60;65.21;97677.78;5081659;27;20082;-71
2022/05/28 07:28:26;;;;;;;7.32;3.58;;;;;;;12.60;65.42;97678.63;5100104;27;20091;-72
2022/05/28 07:30:52;;;;;;;5.22;3.40;;;;;;;12.64;64.87;97679.94;5102271;27;20172;-73
2022/05/28 07:33:17;;;;;;;4.97;3.65;;;;;;;12.63;64.90;97675.63;5065686;27;20063;-71
2022/05/28 07:35:42;;;;;;;6.28;4.65;;;;;;;12.66;65.56;97685.94;5100933;27;20046;-73
2022/05/28 07:38:07;;;;;;;6.63;3.92;;;;;;;12.64;64.55;97687.16;5100897;27;20058;-72
2022/05/28 07:40:34;;;;;;;11.63;4.55;;;;;;;12.68;65.54;97686.63;5088274;27;20524;-72
2022/05/28 07:42:58;;;;;;;7.05;3.58;;;;;;;12.66;65.52;97685.94;5073335;27;20043;-72
2022/05/28 07:45:23;;;;;;;6.75;3.63;;;;;;;12.71;64.69;97694.31;5089689;27;20057;-71
2022/05/28 07:47:48;;;;;;;7.35;3.28;;;;;;;12.84;63.20;97699.13;5074259;28;20039;-71
2022/05/28 07:50:13;;;;;;;4.45;2.45;;;;;;;12.92;63.50;97691.06;5087702;27;20043;-73
2022/05/28 07:52:37;;;;;;;6.57;3.38;;;;;;;13.02;62.38;97707.75;5097295;27;20130;-71
2022/05/28 07:55:02;;;;;;;4.22;2.83;;;;;;;13.13;61.46;97703.88;5096209;27;20545;-73
2022/05/28 07:57:27;;;;;;;5.82;3.10;;;;;;;13.26;62.28;97712.22;5097059;27;20053;-70
2022/05/28 07:59:52;;;;;;;5.03;3.13;;;;;;;13.38;61.02;97716.19;5080867;28;20027;-74
2022/05/28 08:02:17;;;;;;;10.10;5.65;;;;;;;13.44;61.05;97712.78;5075652;27;20038;-77
2022/05/28 08:04:42;;;;;;;14.63;3.13;;;;;;;13.52;60.74;97713.78;5084511;27;20050;-71
2022/05/28 08:07:07;;;;;;;4.32;3.53;;;;;;;13.61;60.39;97716.25;5044049;27;20039;-70
2022/05/28 08:09:31;;;;;;;4.78;3.63;;;;;;;13.86;59.53;97719.63;5060905;27;20050;-72
2022/05/28 08:11:56;;;;;;;5.25;3.20;;;;;;;14.13;58.72;97716.41;5097566;27;20439;-71
2022/05/28 08:14:21;;;;;;;5.20;3.58;;;;;;;14.36;59.31;97719.06;5097961;28;20039;-75
2022/05/28 08:16:46;;;;;;;7.05;2.97;;;;;;;14.50;58.27;97730.88;5098201;28;20072;-75
2022/05/28 08:19:10;;;;;;;4.50;2.90;;;;;;;14.57;57.75;97723.78;5097476;28;20039;-71
2022/05/28 08:24:18;;;;;;;8.15;3.72;;;;;;;14.22;57.75;97745.84;5096357;28;20049;-69
2022/05/28 08:26:43;;;;;;;11.02;2.92;;;;;;;13.82;58.62;97740.56;5078565;28;20047;-69
2022/05/28 08:29:08;;;;;;;8.10;3.20;;;;;;;13.59;59.58;97750.38;5080234;28;20083;-70
2022/05/28 08:31:33;;;;;;;9.13;4.28;;;;;;;12.92;61.56;97754.44;5078112;28;20035;-69
2022/05/28 08:33:58;;;;;;;9.15;4.00;;;;;;;12.46;64.87;97759.50;5095520;28;20383;-68
2022/05/28 08:36:22;;;;;;;9.32;4.60;;;;;;;12.08;67.37;97758.28;5095795;28;20409;-68
2022/05/28 08:38:48;;;;;;;10.77;4.95;;;;;;;11.71;68.11;97761.38;5043355;28;20043;-68
2022/05/28 08:41:26;;;;;;;5.60;3.45;;;;;;;11.53;69.36;97773.97;5077480;28;20040;-67
2022/05/28 08:43:51;;;;;;;4.75;3.20;;;;;;;11.05;69.99;97764.75;5095706;28;20516;-68
2022/05/28 08:46:17;;;;;;;5.72;3.00;;;;;;;10.85;70.70;97780.13;5095583;28;20799;-69
2022/05/28 08:48:52;;;;;;;3.72;3.00;;;;;;;10.53;71.95;97774.56;5059652;28;20070;-67
2022/05/28 08:51:39;;;;;;;3.92;3.00;;;;;;;10.38;72.54;97776.97;5077836;28;20041;-68
2022/05/28 08:54:19;;;;;;;4.57;3.38;;;;;;;10.24;73.37;97785.50;5077385;28;20047;-74
2022/05/28 08:56:45;;;;;;;6.90;2.80;;;;;;;9.95;75.39;97777.66;5097775;27;20051;-74
2022/05/28 08:59:18;;;;;;;6.60;3.97;;;;;;;9.92;74.89;97777.16;5083816;27;20059;-76
2022/05/28 09:01:44;;;;;;;7.10;3.45;;;;;;;9.81;75.36;97789.69;5093089;27;20046;-73
2022/05/28 09:04:17;;;;;;;9.45;3.78;;;;;;;9.76;77.95;97789.28;5092232;27;20054;-75
2022/05/28 09:06:49;;;;;;;7.07;3.95;;;;;;;9.75;78.68;97792.94;5093373;27;20043;-73
2022/05/28 09:09:16;;;;;;;5.72;4.47;;;;;;;9.86;78.33;97791.88;5089010;27;20045;-74
2022/05/28 09:12:02;;;;;;;7.00;4.30;;;;;;;9.96;79.11;97792.66;5086975;27;20038;-75
2022/05/28 09:14:30;;;;;;;6.97;4.63;;;;;;;9.95;78.85;97801.63;5073650;27;20043;-75
2022/05/28 09:17:09;;;;;;;10.90;4.63;;;;;;;9.91;77.95;97799.44;5087614;27;20030;-75
2022/05/28 09:19:39;;;;;;;7.78;4.10;;;;;;;9.91;78.11;97796.78;5071262;27;20039;-75
2022/05/28 09:22:04;;;;;;;6.88;4.75;;;;;;;9.88;78.65;97797.91;5094134;27;20069;-77
2022/05/28 09:24:31;;;;;;;10.07;4.45;;;;;;;9.92;79.86;97801.13;5070186;27;20051;-77
2022/05/28 09:27:11;;;;;;;11.10;4.63;;;;;;;10.05;80.59;97812.22;5084939;27;20078;-76
2022/05/28 09:29:51;;;;;;;8.30;4.70;;;;;;;10.19;80.80;97806.41;5064147;27;20043;-76
2022/05/28 09:32:19;;;;;;;12.00;5.05;;;;;;;10.37;81.07;97809.91;5099289;27;20506;-75
2022/05/28 09:34:49;;;;;;;8.55;5.13;;;;;;;10.57;79.22;97799.06;5099436;27;20070;-77
2022/05/28 09:37:17;;;;;;;10.13;4.85;;;;;;;10.73;78.50;97810.69;5084066;27;20046;-76
2022/05/28 09:40:11;;;;;;;6.20;4.38;;;;;;;10.90;77.63;97819.66;5068500;27;20103;-75
2022/05/28 09:42:54;;;;;;;8.98;4.75;;;;;;;11.03;76.72;97819.25;5047042;27;20049;-76
2022/05/28 09:45:48;;;;;;;9.63;5.60;;;;;;;11.27;75.69;97832.72;5098857;27;20401;-75
2022/05/28 09:48:22;;;;;;;7.32;4.88;;;;;;;11.58;76.00;97825.88;5062742;27;20175;-76
2022/05/28 09:50:47;;;;;;;8.05;4.80;;;;;;;11.78;75.59;97844.31;5098450;27;20484;-76
2022/05/28 09:56:17;;;;;;;6.75;3.92;;;;;;;12.09;74.04;97840.09;5079630;27;20031;-72
2022/05/28 09:58:42;;;;;;;6.63;4.63;;;;;;;12.21;72.99;97841.47;5079805;27;20521;-71
2022/05/28 10:01:09;;;;;;;6.75;4.20;;;;;;;12.63;72.64;97837.84;5097930;27;20548;-74
2022/05/28 10:06:22;;;;;;;5.90;3.83;;;;;;;14.00;70.52;97839.38;5079377;27;20450;-74
2022/05/28 10:08:46;;;;;;;7.25;3.60;;;;;;;15.98;66.94;97840.06;5097835;27;20070;-73
2022/05/28 10:11:18;;;;;;;6.65;3.00;;;;;;;18.20;59.86;97848.59;5098385;27;20070;-74
2022/05/28 10:13:49;;;;;;;6.70;3.08;;;;;;;19.83;51.12;97843.56;5097740;27;20038;-73
2022/05/28 10:16:22;;;;;;;6.32;3.53;;;;;;;21.11;50.45;97847.91;5079719;27;20536;-73
2022/05/28 10:18:58;;;;;;;3.00;2.70;;;;;;;21.51;44.98;97850.34;5079139;27;20031;-72
2022/05/28 10:21:33;;;;;;;7.20;2.75;;;;;;;20.64;46.30;97847.44;5079618;27;20107;-71
2022/05/28 10:24:02;;;;;;;4.97;2.95;;;;;;;20.64;46.77;97855.56;5079199;27;20506;-70
2022/05/28 10:26:33;;;;;;;2.92;2.72;;;;;;;20.74;44.38;97855.06;5082406;27;20146;-72
2022/05/28 10:29:02;;;;;;;6.65;2.78;;;;;;;20.12;42.70;97853.88;5062919;27;20481;-73
2022/05/28 10:31:40;;;;;;;3.28;2.45;;;;;;;19.86;46.32;97854.78;5092129;27;20039;-73
2022/05/28 10:34:06;;;;;;;4.03;2.47;;;;;;;19.23;44.50;97859.00;5110829;27;20047;-73
2022/05/28 10:36:33;;;;;;;2.95;2.33;;;;;;;18.59;44.38;97856.84;5084500;27;20051;-73
2022/05/28 10:39:18;;;;;;;7.43;2.85;;;;;;;18.14;42.80;97856.47;5099847;27;20505;-76
2022/05/28 10:41:43;;;;;;;3.50;2.50;;;;;;;17.71;45.46;97865.78;5059743;27;20051;-73
2022/05/28 10:44:09;;;;;;;4.82;2.08;;;;;;;17.68;45.74;97869.69;5079483;27;20130;-73
2022/05/28 10:46:58;;;;;;;3.90;2.13;;;;;;;17.71;46.35;97865.78;5062358;27;20070;-76
2022/05/28 10:49:29;;;;;;;2.38;1.80;;;;;;;17.51;46.13;97865.59;5079328;27;20043;-76
2022/05/28 10:52:09;;;;;;;3.97;2.38;;;;;;;17.49;46.30;97862.28;5097263;27;20039;-71
2022/05/28 10:54:52;;;;;;;6.88;3.40;;;;;;;17.46;47.44;97864.53;5097382;27;20045;-73
2022/05/28 10:57:24;;;;;;;7.18;3.40;;;;;;;17.54;45.76;97867.06;5078678;27;20051;-73
2022/05/28 11:00:04;;;;;;;6.57;2.47;;;;;;;17.72;45.58;97870.94;5097123;27;20035;-74
2022/05/28 11:02:44;;;;;;;6.90;2.58;;;;;;;17.58;45.10;97866.50;5063446;27;20751;-72
2022/05/28 11:05:12;;;;;;;4.95;2.30;;;;;;;17.29;45.45;97867.50;5081044;27;20547;-73
2022/05/28 11:08:08;;;;;;;2.33;2.08;;;;;;;17.43;47.14;97874.66;5097977;27;20054;-72
2022/05/28 11:10:39;;;;;;;3.63;2.50;;;;;;;17.31;43.79;97873.53;5049410;27;20035;-72
2022/05/28 11:13:30;;;;;;;4.50;2.40;;;;;;;17.24;44.60;97872.66;5066233;27;20103;-71
2022/05/28 11:16:29;;;;;;;4.15;2.28;;;;;;;17.13;45.69;97888.50;5104131;27;20049;-72
2022/05/28 11:19:34;;;;;;;4.60;2.60;;;;;;;17.29;45.41;97878.28;5083335;27;20054;-70
2022/05/28 11:21:58;;;;;;;6.82;3.05;;;;;;;17.14;44.16;97879.41;5037267;28;20487;-70
2022/05/28 11:24:55;;;;;;;4.68;2.15;;;;;;;17.04;45.45;97879.75;5036533;28;20485;-72
2022/05/28 11:27:44;;;;;;;3.78;2.22;;;;;;;16.81;46.11;97895.25;5020487;28;20609;-70
2022/05/28 11:30:38;;;;;;;4.72;3.17;;;;;;;16.55;45.48;97893.06;5032247;28;20033;-76
2022/05/28 11:33:25;;;;;;;3.60;2.05;;;;;;;16.41;47.38;97897.47;5035547;28;20068;-72
2022/05/28 11:36:00;;;;;;;2.85;2.33;;;;;;;16.21;46.82;97894.53;5047978;28;20060;-74
2022/05/28 11:39:06;;;;;;;2.83;1.90;;;;;;;16.01;47.19;97896.13;5044859;28;20040;-73
2022/05/28 11:41:39;;;;;;;6.30;2.30;;;;;;;15.80;46.78;97894.16;5001247;28;20064;-69
2022/05/28 11:44:13;;;;;;;5.68;2.08;;;;;;;15.89;47.19;97894.94;4982655;28;20108;-70
2022/05/28 11:46:51;;;;;;;4.25;1.90;;;;;;;16.17;47.61;97903.97;4983782;28;20609;-70
2022/05/28 11:52:36;;;;;;;6.75;2.55;;;;;;;16.17;45.72;97905.84;4998935;28;20081;-70
2022/05/28 11:55:10;;;;;;;5.05;1.95;;;;;;;16.47;46.12;97912.03;5000769;28;20049;-69
2022/05/28 11:57:46;;;;;;;3.30;2.33;;;;;;;16.73;45.85;97909.63;4970694;28;20045;-70